This is the latest recevied weather packets stored in our database for station/object W5HKR. If no packets are shown the sender has not sent any weather packets the latest 10 day(s).
| Time | Temp. | Humidity | Pressure | Rain* | Wind** | Luminosity | Snow |
|---|---|---|---|---|---|---|---|
| 1777606102 | 18.33° C | 91% | 990.6 hPa | 0 mm | - | - | - |
| 1777605802 | 21.11° C | 82% | 983.7 hPa | 0 mm | - | - | - |
| 1777605502 | 21.11° C | 82% | 983.9 hPa | 0 mm | - | - | - |
| 1777605392 | 18.33° C | 91% | 990.6 hPa | 0 mm | - | - | - |
| 1777605200 | 18.33° C | 91% | 990.6 hPa | 0 mm | - | - | - |
| 1777604901 | 18.33° C | 91% | 990.6 hPa | 0 mm | - | - | - |
| 1777604601 | 21.11° C | 81% | 982.7 hPa | 0 mm | - | - | - |
| 1777604302 | 18.33° C | 91% | 990.6 hPa | 0 mm | - | - | - |
| 1777604001 | 21.67° C | 81% | 983.3 hPa | 0 mm | - | - | - |
| 1777603702 | 21.67° C | 81% | 983.1 hPa | 0 mm | - | - | - |
| 1777603401 | 21.67° C | 80% | 983 hPa | 0 mm | - | - | - |
| 1777603234 | 21.67° C | 80% | 982.7 hPa | 0 mm | - | - | - |
| 1777602801 | 18.33° C | 91% | 990.6 hPa | 0 mm | - | - | - |
| 1777602502 | 18.33° C | 91% | 990.6 hPa | 0 mm | - | - | - |
| 1777602201 | 21.67° C | 80% | 982.1 hPa | 0 mm | - | - | - |
| 1777602153 | 18.33° C | 91% | 990.6 hPa | 0 mm | - | - | - |
| 1777601901 | 18.33° C | 91% | 990.6 hPa | 0 mm | - | - | - |
| 1777601601 | 21.67° C | 81% | 982.5 hPa | 0 mm | - | - | - |
| 1777601301 | 18.33° C | 91% | 990.6 hPa | 0 mm | - | - | - |
| 1777601073 | 18.33° C | 91% | 990.6 hPa | 0 mm | - | - | - |
| 1777601002 | 21.67° C | 80% | 982.1 hPa | 0 mm | - | - | - |
| 1777587034 | 18.33° C | 91% | 990.6 hPa | 0 mm | - | - | - |
| 1777586003 | 24.44° C | 71% | 981.4 hPa | 0 mm | - | - | - |
| 1777583794 | 18.33° C | 91% | 990.6 hPa | 0 mm | - | - | - |
| 1777581501 | 18.33° C | 91% | 990.6 hPa | 0 mm | - | - | - |
* Rain latest hour (hover to see other rain measurements)
** Current wind speed in m/s (hover to see current wind gust speed)